sensor_id;sensor_type;location;lat;lon;timestamp;P1;durP1;ratioP1;P2;durP2;ratioP2
15944;SDS011;30172;48.832;8.732;2023-12-20T00:01:31;1.93;;;1.40;;
15944;SDS011;30172;48.832;8.732;2023-12-20T00:03:56;1.67;;;0.90;;
15944;SDS011;30172;48.832;8.732;2023-12-20T00:06:22;4.13;;;1.90;;
15944;SDS011;30172;48.832;8.732;2023-12-20T00:08:47;3.30;;;1.27;;
15944;SDS011;30172;48.832;8.732;2023-12-20T00:11:12;3.10;;;1.40;;
15944;SDS011;30172;48.832;8.732;2023-12-20T00:13:38;2.20;;;1.17;;
15944;SDS011;30172;48.832;8.732;2023-12-20T00:16:03;1.20;;;0.90;;
15944;SDS011;30172;48.832;8.732;2023-12-20T00:18:29;1.33;;;1.00;;
15944;SDS011;30172;48.832;8.732;2023-12-20T00:20:54;0.73;;;0.70;;
15944;SDS011;30172;48.832;8.732;2023-12-20T00:23:19;1.13;;;0.70;;
15944;SDS011;30172;48.832;8.732;2023-12-20T00:25:45;1.67;;;0.77;;
15944;SDS011;30172;48.832;8.732;2023-12-20T00:28:10;0.93;;;0.80;;
15944;SDS011;30172;48.832;8.732;2023-12-20T00:30:35;0.50;;;0.50;;
15944;SDS011;30172;48.832;8.732;2023-12-20T00:33:01;0.63;;;0.63;;
15944;SDS011;30172;48.832;8.732;2023-12-20T00:35:27;0.70;;;0.70;;
15944;SDS011;30172;48.832;8.732;2023-12-20T00:37:52;2.07;;;0.70;;
15944;SDS011;30172;48.832;8.732;2023-12-20T00:40:18;0.60;;;0.60;;
15944;SDS011;30172;48.832;8.732;2023-12-20T00:42:43;0.63;;;0.63;;
15944;SDS011;30172;48.832;8.732;2023-12-20T00:45:09;0.40;;;0.40;;
15944;SDS011;30172;48.832;8.732;2023-12-20T00:47:34;0.80;;;0.67;;
15944;SDS011;30172;48.832;8.732;2023-12-20T00:49:59;1.80;;;0.60;;
15944;SDS011;30172;48.832;8.732;2023-12-20T00:52:25;0.70;;;0.70;;
15944;SDS011;30172;48.832;8.732;2023-12-20T00:54:50;0.57;;;0.57;;
15944;SDS011;30172;48.832;8.732;2023-12-20T00:57:16;0.60;;;0.60;;
15944;SDS011;30172;48.832;8.732;2023-12-20T00:59:41;0.53;;;0.50;;
15944;SDS011;30172;48.832;8.732;2023-12-20T01:02:06;0.50;;;0.50;;
15944;SDS011;30172;48.832;8.732;2023-12-20T01:04:32;0.40;;;0.40;;
15944;SDS011;30172;48.832;8.732;2023-12-20T01:06:57;1.40;;;0.40;;
15944;SDS011;30172;48.832;8.732;2023-12-20T01:09:22;0.50;;;0.50;;
15944;SDS011;30172;48.832;8.732;2023-12-20T01:11:54;0.53;;;0.40;;
15944;SDS011;30172;48.832;8.732;2023-12-20T01:14:19;0.90;;;0.50;;
15944;SDS011;30172;48.832;8.732;2023-12-20T01:16:45;1.27;;;0.63;;
15944;SDS011;30172;48.832;8.732;2023-12-20T01:19:10;0.30;;;0.30;;
15944;SDS011;30172;48.832;8.732;2023-12-20T01:21:35;0.60;;;0.60;;
15944;SDS011;30172;48.832;8.732;2023-12-20T01:24:01;0.30;;;0.30;;
15944;SDS011;30172;48.832;8.732;2023-12-20T01:26:26;0.30;;;0.30;;
15944;SDS011;30172;48.832;8.732;2023-12-20T01:28:51;0.50;;;0.50;;
15944;SDS011;30172;48.832;8.732;2023-12-20T01:31:17;0.50;;;0.40;;
15944;SDS011;30172;48.832;8.732;2023-12-20T01:33:42;0.40;;;0.30;;
15944;SDS011;30172;48.832;8.732;2023-12-20T01:36:07;0.40;;;0.40;;
15944;SDS011;30172;48.832;8.732;2023-12-20T01:38:33;0.40;;;0.40;;
15944;SDS011;30172;48.832;8.732;2023-12-20T01:40:59;0.43;;;0.43;;
15944;SDS011;30172;48.832;8.732;2023-12-20T01:43:25;1.10;;;0.40;;
15944;SDS011;30172;48.832;8.732;2023-12-20T01:45:50;0.33;;;0.33;;
15944;SDS011;30172;48.832;8.732;2023-12-20T01:48:16;0.53;;;0.40;;
15944;SDS011;30172;48.832;8.732;2023-12-20T01:50:44;0.30;;;0.30;;
15944;SDS011;30172;48.832;8.732;2023-12-20T01:53:10;0.30;;;0.30;;
15944;SDS011;30172;48.832;8.732;2023-12-20T01:55:38;0.33;;;0.30;;
15944;SDS011;30172;48.832;8.732;2023-12-20T01:58:04;0.50;;;0.27;;
15944;SDS011;30172;48.832;8.732;2023-12-20T02:00:30;0.40;;;0.40;;
15944;SDS011;30172;48.832;8.732;2023-12-20T02:02:56;0.30;;;0.30;;
15944;SDS011;30172;48.832;8.732;2023-12-20T02:05:21;0.40;;;0.40;;
15944;SDS011;30172;48.832;8.732;2023-12-20T02:07:47;0.30;;;0.30;;
15944;SDS011;30172;48.832;8.732;2023-12-20T02:10:13;0.30;;;0.30;;
15944;SDS011;30172;48.832;8.732;2023-12-20T02:12:39;0.40;;;0.40;;
15944;SDS011;30172;48.832;8.732;2023-12-20T02:15:05;0.47;;;0.30;;
15944;SDS011;30172;48.832;8.732;2023-12-20T02:17:31;0.40;;;0.40;;
15944;SDS011;30172;48.832;8.732;2023-12-20T02:19:57;0.33;;;0.33;;
15944;SDS011;30172;48.832;8.732;2023-12-20T02:22:22;0.30;;;0.30;;
15944;SDS011;30172;48.832;8.732;2023-12-20T02:24:47;2.67;;;0.30;;
15944;SDS011;30172;48.832;8.732;2023-12-20T02:27:13;0.40;;;0.40;;
15944;SDS011;30172;48.832;8.732;2023-12-20T02:29:39;0.30;;;0.30;;
15944;SDS011;30172;48.832;8.732;2023-12-20T02:32:05;0.40;;;0.40;;
15944;SDS011;30172;48.832;8.732;2023-12-20T02:34:30;0.30;;;0.30;;
15944;SDS011;30172;48.832;8.732;2023-12-20T02:36:55;0.30;;;0.30;;
15944;SDS011;30172;48.832;8.732;2023-12-20T02:39:21;0.50;;;0.50;;
15944;SDS011;30172;48.832;8.732;2023-12-20T02:41:47;1.23;;;0.40;;
15944;SDS011;30172;48.832;8.732;2023-12-20T02:44:13;0.40;;;0.40;;
15944;SDS011;30172;48.832;8.732;2023-12-20T02:46:38;0.40;;;0.40;;
15944;SDS011;30172;48.832;8.732;2023-12-20T02:49:04;0.60;;;0.60;;
15944;SDS011;30172;48.832;8.732;2023-12-20T02:51:29;0.40;;;0.40;;
15944;SDS011;30172;48.832;8.732;2023-12-20T02:53:54;0.40;;;0.40;;
15944;SDS011;30172;48.832;8.732;2023-12-20T02:56:20;0.50;;;0.43;;
15944;SDS011;30172;48.832;8.732;2023-12-20T02:58:45;0.53;;;0.50;;
15944;SDS011;30172;48.832;8.732;2023-12-20T03:01:10;1.70;;;0.50;;
15944;SDS011;30172;48.832;8.732;2023-12-20T03:03:36;0.30;;;0.30;;
15944;SDS011;30172;48.832;8.732;2023-12-20T03:06:01;0.40;;;0.40;;
15944;SDS011;30172;48.832;8.732;2023-12-20T03:08:26;0.53;;;0.33;;
15944;SDS011;30172;48.832;8.732;2023-12-20T03:10:52;0.63;;;0.30;;
15944;SDS011;30172;48.832;8.732;2023-12-20T03:13:18;0.30;;;0.30;;
15944;SDS011;30172;48.832;8.732;2023-12-20T03:15:44;0.37;;;0.37;;
15944;SDS011;30172;48.832;8.732;2023-12-20T03:18:09;0.40;;;0.40;;
15944;SDS011;30172;48.832;8.732;2023-12-20T03:20:35;0.37;;;0.37;;
15944;SDS011;30172;48.832;8.732;2023-12-20T03:23:00;0.47;;;0.47;;
15944;SDS011;30172;48.832;8.732;2023-12-20T03:25:26;0.40;;;0.40;;
15944;SDS011;30172;48.832;8.732;2023-12-20T03:27:52;0.40;;;0.40;;
15944;SDS011;30172;48.832;8.732;2023-12-20T03:30:17;0.40;;;0.40;;
15944;SDS011;30172;48.832;8.732;2023-12-20T03:32:43;0.40;;;0.40;;
15944;SDS011;30172;48.832;8.732;2023-12-20T03:35:08;0.53;;;0.50;;
15944;SDS011;30172;48.832;8.732;2023-12-20T03:37:34;0.30;;;0.30;;
15944;SDS011;30172;48.832;8.732;2023-12-20T03:39:59;1.60;;;0.40;;
15944;SDS011;30172;48.832;8.732;2023-12-20T03:42:25;0.30;;;0.30;;
15944;SDS011;30172;48.832;8.732;2023-12-20T03:44:50;1.03;;;0.40;;
15944;SDS011;30172;48.832;8.732;2023-12-20T03:47:15;0.37;;;0.30;;
15944;SDS011;30172;48.832;8.732;2023-12-20T03:49:41;0.40;;;0.40;;
15944;SDS011;30172;48.832;8.732;2023-12-20T03:52:06;0.40;;;0.40;;
15944;SDS011;30172;48.832;8.732;2023-12-20T03:54:32;1.27;;;0.50;;
15944;SDS011;30172;48.832;8.732;2023-12-20T03:56:57;0.53;;;0.53;;
15944;SDS011;30172;48.832;8.732;2023-12-20T03:59:23;0.40;;;0.40;;
15944;SDS011;30172;48.832;8.732;2023-12-20T04:01:48;0.30;;;0.30;;
15944;SDS011;30172;48.832;8.732;2023-12-20T04:04:14;1.00;;;0.50;;
15944;SDS011;30172;48.832;8.732;2023-12-20T04:06:39;1.30;;;1.03;;
15944;SDS011;30172;48.832;8.732;2023-12-20T04:09:05;1.27;;;0.93;;
15944;SDS011;30172;48.832;8.732;2023-12-20T04:11:30;0.73;;;0.70;;
15944;SDS011;30172;48.832;8.732;2023-12-20T04:13:55;0.40;;;0.40;;
15944;SDS011;30172;48.832;8.732;2023-12-20T04:16:21;0.70;;;0.70;;
15944;SDS011;30172;48.832;8.732;2023-12-20T04:18:46;0.70;;;0.40;;
15944;SDS011;30172;48.832;8.732;2023-12-20T04:21:11;0.50;;;0.50;;
15944;SDS011;30172;48.832;8.732;2023-12-20T04:23:37;0.50;;;0.40;;
15944;SDS011;30172;48.832;8.732;2023-12-20T04:26:02;0.90;;;0.90;;
15944;SDS011;30172;48.832;8.732;2023-12-20T04:28:28;0.37;;;0.37;;
15944;SDS011;30172;48.832;8.732;2023-12-20T04:30:55;0.80;;;0.80;;
15944;SDS011;30172;48.832;8.732;2023-12-20T04:33:21;1.40;;;1.30;;
15944;SDS011;30172;48.832;8.732;2023-12-20T04:35:46;1.53;;;1.20;;
15944;SDS011;30172;48.832;8.732;2023-12-20T04:38:12;1.00;;;0.90;;
15944;SDS011;30172;48.832;8.732;2023-12-20T04:40:37;2.20;;;2.00;;
15944;SDS011;30172;48.832;8.732;2023-12-20T04:43:03;1.10;;;1.00;;
15944;SDS011;30172;48.832;8.732;2023-12-20T04:45:29;0.90;;;0.90;;
15944;SDS011;30172;48.832;8.732;2023-12-20T04:47:54;0.90;;;0.90;;
15944;SDS011;30172;48.832;8.732;2023-12-20T04:50:20;1.23;;;0.90;;
15944;SDS011;30172;48.832;8.732;2023-12-20T04:52:46;2.47;;;1.67;;
15944;SDS011;30172;48.832;8.732;2023-12-20T04:55:12;2.07;;;1.77;;
15944;SDS011;30172;48.832;8.732;2023-12-20T04:57:37;1.80;;;1.70;;
15944;SDS011;30172;48.832;8.732;2023-12-20T05:00:02;1.20;;;1.00;;
15944;SDS011;30172;48.832;8.732;2023-12-20T05:02:28;1.07;;;0.90;;
15944;SDS011;30172;48.832;8.732;2023-12-20T05:04:53;7.00;;;5.10;;
15944;SDS011;30172;48.832;8.732;2023-12-20T05:07:19;5.10;;;3.93;;
15944;SDS011;30172;48.832;8.732;2023-12-20T05:09:44;3.53;;;3.03;;
15944;SDS011;30172;48.832;8.732;2023-12-20T05:12:09;1.30;;;1.20;;
15944;SDS011;30172;48.832;8.732;2023-12-20T05:14:35;2.00;;;1.10;;
15944;SDS011;30172;48.832;8.732;2023-12-20T05:17:00;1.53;;;0.93;;
15944;SDS011;30172;48.832;8.732;2023-12-20T05:19:26;1.30;;;1.20;;
15944;SDS011;30172;48.832;8.732;2023-12-20T05:21:51;1.30;;;1.10;;
15944;SDS011;30172;48.832;8.732;2023-12-20T05:24:17;1.23;;;0.90;;
15944;SDS011;30172;48.832;8.732;2023-12-20T05:26:42;0.97;;;0.97;;
15944;SDS011;30172;48.832;8.732;2023-12-20T05:29:07;1.40;;;1.30;;
15944;SDS011;30172;48.832;8.732;2023-12-20T05:31:33;1.30;;;1.17;;
15944;SDS011;30172;48.832;8.732;2023-12-20T05:33:59;3.97;;;1.10;;
15944;SDS011;30172;48.832;8.732;2023-12-20T05:36:24;1.57;;;1.30;;
15944;SDS011;30172;48.832;8.732;2023-12-20T05:38:49;1.43;;;1.20;;
15944;SDS011;30172;48.832;8.732;2023-12-20T05:41:15;1.40;;;1.30;;
15944;SDS011;30172;48.832;8.732;2023-12-20T05:43:41;1.23;;;1.00;;
15944;SDS011;30172;48.832;8.732;2023-12-20T05:46:06;1.97;;;1.33;;
15944;SDS011;30172;48.832;8.732;2023-12-20T05:48:31;1.93;;;1.13;;
15944;SDS011;30172;48.832;8.732;2023-12-20T05:50:57;1.50;;;1.30;;
15944;SDS011;30172;48.832;8.732;2023-12-20T05:53:22;1.10;;;1.00;;
15944;SDS011;30172;48.832;8.732;2023-12-20T05:55:48;1.60;;;1.50;;
15944;SDS011;30172;48.832;8.732;2023-12-20T05:58:13;2.73;;;1.60;;
15944;SDS011;30172;48.832;8.732;2023-12-20T06:00:38;1.20;;;1.10;;
15944;SDS011;30172;48.832;8.732;2023-12-20T06:03:04;1.20;;;1.10;;
15944;SDS011;30172;48.832;8.732;2023-12-20T06:05:30;1.20;;;1.10;;
15944;SDS011;30172;48.832;8.732;2023-12-20T06:07:55;1.07;;;0.97;;
15944;SDS011;30172;48.832;8.732;2023-12-20T06:10:26;1.10;;;1.10;;
15944;SDS011;30172;48.832;8.732;2023-12-20T06:12:51;1.73;;;1.53;;
15944;SDS011;30172;48.832;8.732;2023-12-20T06:15:17;1.70;;;1.60;;
15944;SDS011;30172;48.832;8.732;2023-12-20T06:17:42;1.70;;;1.60;;
15944;SDS011;30172;48.832;8.732;2023-12-20T06:20:08;2.10;;;1.90;;
15944;SDS011;30172;48.832;8.732;2023-12-20T06:22:34;2.13;;;1.93;;
15944;SDS011;30172;48.832;8.732;2023-12-20T06:25:00;1.93;;;1.73;;
15944;SDS011;30172;48.832;8.732;2023-12-20T06:27:25;2.53;;;2.33;;
15944;SDS011;30172;48.832;8.732;2023-12-20T06:29:50;2.20;;;1.90;;
15944;SDS011;30172;48.832;8.732;2023-12-20T06:32:16;2.70;;;2.50;;
15944;SDS011;30172;48.832;8.732;2023-12-20T06:34:41;3.10;;;2.80;;
15944;SDS011;30172;48.832;8.732;2023-12-20T06:37:06;3.27;;;2.93;;
15944;SDS011;30172;48.832;8.732;2023-12-20T06:39:32;3.77;;;3.03;;
15944;SDS011;30172;48.832;8.732;2023-12-20T06:41:59;4.83;;;3.30;;
15944;SDS011;30172;48.832;8.732;2023-12-20T06:44:24;3.93;;;3.53;;
15944;SDS011;30172;48.832;8.732;2023-12-20T06:46:50;4.33;;;3.93;;
15944;SDS011;30172;48.832;8.732;2023-12-20T06:49:15;4.50;;;3.30;;
15944;SDS011;30172;48.832;8.732;2023-12-20T06:51:40;3.70;;;3.30;;
15944;SDS011;30172;48.832;8.732;2023-12-20T06:54:06;3.27;;;3.00;;
15944;SDS011;30172;48.832;8.732;2023-12-20T06:56:32;3.17;;;2.93;;
15944;SDS011;30172;48.832;8.732;2023-12-20T06:58:57;3.63;;;3.30;;
15944;SDS011;30172;48.832;8.732;2023-12-20T07:01:22;4.43;;;3.33;;
15944;SDS011;30172;48.832;8.732;2023-12-20T07:03:48;3.60;;;3.27;;
15944;SDS011;30172;48.832;8.732;2023-12-20T07:06:13;4.50;;;3.80;;
15944;SDS011;30172;48.832;8.732;2023-12-20T07:08:41;4.30;;;3.90;;
15944;SDS011;30172;48.832;8.732;2023-12-20T07:11:06;4.97;;;3.60;;
15944;SDS011;30172;48.832;8.732;2023-12-20T07:13:32;7.17;;;4.50;;
15944;SDS011;30172;48.832;8.732;2023-12-20T07:15:57;5.77;;;4.37;;
15944;SDS011;30172;48.832;8.732;2023-12-20T07:18:23;5.30;;;4.60;;
15944;SDS011;30172;48.832;8.732;2023-12-20T07:20:48;5.47;;;4.30;;
15944;SDS011;30172;48.832;8.732;2023-12-20T07:23:13;6.17;;;4.57;;
15944;SDS011;30172;48.832;8.732;2023-12-20T07:25:39;6.83;;;5.53;;
15944;SDS011;30172;48.832;8.732;2023-12-20T07:28:04;5.30;;;4.30;;
15944;SDS011;30172;48.832;8.732;2023-12-20T07:30:30;9.40;;;6.97;;
15944;SDS011;30172;48.832;8.732;2023-12-20T07:32:55;7.50;;;6.20;;
15944;SDS011;30172;48.832;8.732;2023-12-20T07:35:21;6.77;;;6.00;;
15944;SDS011;30172;48.832;8.732;2023-12-20T07:37:48;8.40;;;5.47;;
15944;SDS011;30172;48.832;8.732;2023-12-20T07:40:13;8.10;;;5.80;;
15944;SDS011;30172;48.832;8.732;2023-12-20T07:42:38;6.43;;;5.77;;
15944;SDS011;30172;48.832;8.732;2023-12-20T07:45:05;6.20;;;4.93;;
15944;SDS011;30172;48.832;8.732;2023-12-20T07:47:30;6.27;;;5.30;;
15944;SDS011;30172;48.832;8.732;2023-12-20T07:49:56;7.33;;;4.93;;
15944;SDS011;30172;48.832;8.732;2023-12-20T07:52:21;6.17;;;4.77;;
15944;SDS011;30172;48.832;8.732;2023-12-20T07:54:49;5.87;;;4.93;;
15944;SDS011;30172;48.832;8.732;2023-12-20T07:57:14;6.93;;;4.90;;
15944;SDS011;30172;48.832;8.732;2023-12-20T07:59:40;7.07;;;4.60;;
15944;SDS011;30172;48.832;8.732;2023-12-20T08:02:05;5.17;;;4.57;;
15944;SDS011;30172;48.832;8.732;2023-12-20T08:04:31;5.23;;;4.23;;
15944;SDS011;30172;48.832;8.732;2023-12-20T08:06:57;6.23;;;5.10;;
15944;SDS011;30172;48.832;8.732;2023-12-20T08:09:23;13.53;;;12.30;;
15944;SDS011;30172;48.832;8.732;2023-12-20T08:11:48;6.63;;;5.67;;
15944;SDS011;30172;48.832;8.732;2023-12-20T08:14:14;5.50;;;4.43;;
15944;SDS011;30172;48.832;8.732;2023-12-20T08:16:40;4.70;;;4.20;;
15944;SDS011;30172;48.832;8.732;2023-12-20T08:19:05;4.77;;;4.27;;
15944;SDS011;30172;48.832;8.732;2023-12-20T08:21:30;5.17;;;4.10;;
15944;SDS011;30172;48.832;8.732;2023-12-20T08:23:56;4.47;;;3.77;;
15944;SDS011;30172;48.832;8.732;2023-12-20T08:26:21;6.47;;;4.60;;
15944;SDS011;30172;48.832;8.732;2023-12-20T08:28:48;4.67;;;3.37;;
15944;SDS011;30172;48.832;8.732;2023-12-20T08:31:14;5.07;;;3.67;;
15944;SDS011;30172;48.832;8.732;2023-12-20T08:33:40;10.07;;;4.10;;
15944;SDS011;30172;48.832;8.732;2023-12-20T08:36:05;6.47;;;3.40;;
15944;SDS011;30172;48.832;8.732;2023-12-20T08:38:31;5.40;;;2.60;;
15944;SDS011;30172;48.832;8.732;2023-12-20T08:40:56;4.10;;;2.40;;
15944;SDS011;30172;48.832;8.732;2023-12-20T08:43:22;5.97;;;2.23;;
15944;SDS011;30172;48.832;8.732;2023-12-20T08:45:47;4.43;;;2.40;;
15944;SDS011;30172;48.832;8.732;2023-12-20T08:48:12;4.10;;;2.60;;
15944;SDS011;30172;48.832;8.732;2023-12-20T08:50:38;4.13;;;2.23;;
15944;SDS011;30172;48.832;8.732;2023-12-20T08:53:04;4.57;;;2.27;;
15944;SDS011;30172;48.832;8.732;2023-12-20T08:55:29;3.10;;;1.80;;
15944;SDS011;30172;48.832;8.732;2023-12-20T08:57:56;3.90;;;2.10;;
15944;SDS011;30172;48.832;8.732;2023-12-20T09:00:21;3.60;;;2.13;;
15944;SDS011;30172;48.832;8.732;2023-12-20T09:02:49;2.73;;;1.50;;
15944;SDS011;30172;48.832;8.732;2023-12-20T09:05:14;3.63;;;1.90;;
15944;SDS011;30172;48.832;8.732;2023-12-20T09:07:40;4.57;;;1.63;;
15944;SDS011;30172;48.832;8.732;2023-12-20T09:10:05;4.30;;;1.77;;
15944;SDS011;30172;48.832;8.732;2023-12-20T09:12:31;5.53;;;1.97;;
15944;SDS011;30172;48.832;8.732;2023-12-20T09:14:56;10.23;;;2.10;;
15944;SDS011;30172;48.832;8.732;2023-12-20T09:17:22;8.57;;;2.27;;
15944;SDS011;30172;48.832;8.732;2023-12-20T09:19:48;4.03;;;1.93;;
15944;SDS011;30172;48.832;8.732;2023-12-20T09:22:13;5.07;;;2.13;;
15944;SDS011;30172;48.832;8.732;2023-12-20T09:24:38;3.47;;;1.73;;
15944;SDS011;30172;48.832;8.732;2023-12-20T09:27:04;4.17;;;2.00;;
15944;SDS011;30172;48.832;8.732;2023-12-20T09:29:30;7.27;;;2.10;;
15944;SDS011;30172;48.832;8.732;2023-12-20T09:31:56;7.80;;;2.50;;
15944;SDS011;30172;48.832;8.732;2023-12-20T09:34:22;6.10;;;2.80;;
15944;SDS011;30172;48.832;8.732;2023-12-20T09:36:48;6.87;;;2.40;;
15944;SDS011;30172;48.832;8.732;2023-12-20T09:39:13;6.60;;;1.93;;
15944;SDS011;30172;48.832;8.732;2023-12-20T09:41:43;7.93;;;2.30;;
15944;SDS011;30172;48.832;8.732;2023-12-20T09:44:11;5.97;;;2.30;;
15944;SDS011;30172;48.832;8.732;2023-12-20T09:46:39;5.20;;;2.00;;
15944;SDS011;30172;48.832;8.732;2023-12-20T09:49:08;5.77;;;2.37;;
15944;SDS011;30172;48.832;8.732;2023-12-20T09:51:34;6.17;;;3.10;;
15944;SDS011;30172;48.832;8.732;2023-12-20T09:53:59;8.87;;;2.67;;
15944;SDS011;30172;48.832;8.732;2023-12-20T09:56:26;4.10;;;2.40;;
15944;SDS011;30172;48.832;8.732;2023-12-20T09:58:51;4.93;;;2.30;;
15944;SDS011;30172;48.832;8.732;2023-12-20T10:01:17;5.83;;;2.53;;
15944;SDS011;30172;48.832;8.732;2023-12-20T10:03:43;6.93;;;2.57;;
15944;SDS011;30172;48.832;8.732;2023-12-20T10:06:09;4.07;;;2.10;;
15944;SDS011;30172;48.832;8.732;2023-12-20T10:08:35;5.97;;;2.23;;
15944;SDS011;30172;48.832;8.732;2023-12-20T10:11:00;5.80;;;2.10;;
15944;SDS011;30172;48.832;8.732;2023-12-20T10:13:28;7.60;;;2.40;;
15944;SDS011;30172;48.832;8.732;2023-12-20T10:15:54;4.97;;;2.50;;
15944;SDS011;30172;48.832;8.732;2023-12-20T10:18:20;5.30;;;2.57;;
15944;SDS011;30172;48.832;8.732;2023-12-20T10:20:46;8.43;;;2.83;;
15944;SDS011;30172;48.832;8.732;2023-12-20T10:23:11;6.90;;;2.93;;
15944;SDS011;30172;48.832;8.732;2023-12-20T10:25:38;4.50;;;2.03;;
15944;SDS011;30172;48.832;8.732;2023-12-20T10:28:14;6.70;;;3.17;;
15944;SDS011;30172;48.832;8.732;2023-12-20T10:30:44;3.90;;;2.50;;
15944;SDS011;30172;48.832;8.732;2023-12-20T10:33:10;4.10;;;2.03;;
15944;SDS011;30172;48.832;8.732;2023-12-20T10:35:36;8.17;;;2.90;;
15944;SDS011;30172;48.832;8.732;2023-12-20T10:38:03;6.03;;;2.50;;
15944;SDS011;30172;48.832;8.732;2023-12-20T10:40:36;5.87;;;2.30;;
15944;SDS011;30172;48.832;8.732;2023-12-20T10:43:02;5.60;;;2.17;;
15944;SDS011;30172;48.832;8.732;2023-12-20T10:45:27;9.80;;;3.03;;
15944;SDS011;30172;48.832;8.732;2023-12-20T10:47:53;10.87;;;3.33;;
15944;SDS011;30172;48.832;8.732;2023-12-20T10:50:19;6.23;;;2.40;;
15944;SDS011;30172;48.832;8.732;2023-12-20T10:52:45;8.87;;;2.67;;
15944;SDS011;30172;48.832;8.732;2023-12-20T10:55:12;7.10;;;2.50;;
15944;SDS011;30172;48.832;8.732;2023-12-20T10:57:37;7.30;;;2.67;;
15944;SDS011;30172;48.832;8.732;2023-12-20T11:00:03;7.03;;;2.20;;
15944;SDS011;30172;48.832;8.732;2023-12-20T11:02:32;8.67;;;2.30;;
15944;SDS011;30172;48.832;8.732;2023-12-20T11:07:46;9.53;;;2.67;;
15944;SDS011;30172;48.832;8.732;2023-12-20T11:10:19;4.70;;;2.00;;
15944;SDS011;30172;48.832;8.732;2023-12-20T11:12:51;5.13;;;1.83;;
15944;SDS011;30172;48.832;8.732;2023-12-20T11:15:19;4.83;;;2.00;;
15944;SDS011;30172;48.832;8.732;2023-12-20T11:17:45;6.07;;;2.40;;
15944;SDS011;30172;48.832;8.732;2023-12-20T11:20:14;5.43;;;2.60;;
15944;SDS011;30172;48.832;8.732;2023-12-20T11:22:39;8.73;;;3.00;;
15944;SDS011;30172;48.832;8.732;2023-12-20T11:25:07;6.30;;;2.33;;
15944;SDS011;30172;48.832;8.732;2023-12-20T11:27:34;7.07;;;2.37;;
15944;SDS011;30172;48.832;8.732;2023-12-20T11:30:00;5.30;;;2.37;;
15944;SDS011;30172;48.832;8.732;2023-12-20T11:32:28;5.50;;;2.47;;
15944;SDS011;30172;48.832;8.732;2023-12-20T11:37:35;6.47;;;2.10;;
15944;SDS011;30172;48.832;8.732;2023-12-20T11:40:02;3.57;;;1.97;;
15944;SDS011;30172;48.832;8.732;2023-12-20T11:42:37;4.40;;;1.83;;
15944;SDS011;30172;48.832;8.732;2023-12-20T11:45:03;6.17;;;2.00;;
15944;SDS011;30172;48.832;8.732;2023-12-20T11:47:29;3.13;;;1.83;;
15944;SDS011;30172;48.832;8.732;2023-12-20T11:49:56;6.33;;;2.23;;
15944;SDS011;30172;48.832;8.732;2023-12-20T11:52:21;6.43;;;1.80;;
15944;SDS011;30172;48.832;8.732;2023-12-20T11:54:46;6.73;;;1.93;;
15944;SDS011;30172;48.832;8.732;2023-12-20T11:57:13;4.53;;;1.80;;
15944;SDS011;30172;48.832;8.732;2023-12-20T11:59:38;4.60;;;1.60;;
15944;SDS011;30172;48.832;8.732;2023-12-20T12:02:03;4.07;;;1.83;;
15944;SDS011;30172;48.832;8.732;2023-12-20T12:04:29;6.67;;;1.90;;
15944;SDS011;30172;48.832;8.732;2023-12-20T12:06:54;6.23;;;2.40;;
15944;SDS011;30172;48.832;8.732;2023-12-20T12:09:19;7.17;;;2.03;;
15944;SDS011;30172;48.832;8.732;2023-12-20T12:11:45;4.73;;;1.90;;
15944;SDS011;30172;48.832;8.732;2023-12-20T12:14:10;4.70;;;2.00;;
15944;SDS011;30172;48.832;8.732;2023-12-20T12:16:36;4.93;;;2.00;;
15944;SDS011;30172;48.832;8.732;2023-12-20T12:19:01;5.97;;;2.10;;
15944;SDS011;30172;48.832;8.732;2023-12-20T12:21:26;8.30;;;1.70;;
15944;SDS011;30172;48.832;8.732;2023-12-20T12:23:52;7.23;;;3.87;;
15944;SDS011;30172;48.832;8.732;2023-12-20T12:26:18;6.93;;;2.57;;
15944;SDS011;30172;48.832;8.732;2023-12-20T12:28:43;5.63;;;1.93;;
15944;SDS011;30172;48.832;8.732;2023-12-20T12:31:13;5.03;;;1.87;;
15944;SDS011;30172;48.832;8.732;2023-12-20T12:33:42;4.20;;;2.20;;
15944;SDS011;30172;48.832;8.732;2023-12-20T12:36:08;6.87;;;2.20;;
15944;SDS011;30172;48.832;8.732;2023-12-20T12:38:34;4.73;;;1.73;;
15944;SDS011;30172;48.832;8.732;2023-12-20T12:41:00;5.20;;;2.10;;
15944;SDS011;30172;48.832;8.732;2023-12-20T12:43:25;5.37;;;2.13;;
15944;SDS011;30172;48.832;8.732;2023-12-20T12:45:51;4.57;;;1.67;;
15944;SDS011;30172;48.832;8.732;2023-12-20T12:48:16;4.57;;;1.97;;
15944;SDS011;30172;48.832;8.732;2023-12-20T12:50:42;9.63;;;2.27;;
15944;SDS011;30172;48.832;8.732;2023-12-20T12:53:07;4.30;;;1.67;;
15944;SDS011;30172;48.832;8.732;2023-12-20T12:55:33;6.60;;;2.10;;
15944;SDS011;30172;48.832;8.732;2023-12-20T12:57:59;6.77;;;1.80;;
15944;SDS011;30172;48.832;8.732;2023-12-20T13:00:24;8.10;;;2.27;;
15944;SDS011;30172;48.832;8.732;2023-12-20T13:02:51;4.57;;;1.80;;
15944;SDS011;30172;48.832;8.732;2023-12-20T13:05:16;5.60;;;1.93;;
15944;SDS011;30172;48.832;8.732;2023-12-20T13:07:42;4.80;;;1.50;;
15944;SDS011;30172;48.832;8.732;2023-12-20T13:10:10;7.63;;;1.70;;
15944;SDS011;30172;48.832;8.732;2023-12-20T13:12:35;10.93;;;3.00;;
15944;SDS011;30172;48.832;8.732;2023-12-20T13:15:01;11.13;;;4.70;;
15944;SDS011;30172;48.832;8.732;2023-12-20T13:17:28;22.77;;;8.37;;
15944;SDS011;30172;48.832;8.732;2023-12-20T13:19:54;8.47;;;4.53;;
15944;SDS011;30172;48.832;8.732;2023-12-20T13:22:19;8.30;;;2.93;;
15944;SDS011;30172;48.832;8.732;2023-12-20T13:24:45;7.13;;;2.40;;
15944;SDS011;30172;48.832;8.732;2023-12-20T13:27:10;12.50;;;3.20;;
15944;SDS011;30172;48.832;8.732;2023-12-20T13:29:35;3.23;;;2.10;;
15944;SDS011;30172;48.832;8.732;2023-12-20T13:32:01;6.20;;;2.10;;
15944;SDS011;30172;48.832;8.732;2023-12-20T13:34:28;10.10;;;2.53;;
15944;SDS011;30172;48.832;8.732;2023-12-20T13:36:53;7.63;;;3.00;;
15944;SDS011;30172;48.832;8.732;2023-12-20T13:39:19;7.83;;;2.27;;
15944;SDS011;30172;48.832;8.732;2023-12-20T13:41:44;5.17;;;2.07;;
15944;SDS011;30172;48.832;8.732;2023-12-20T13:44:10;4.80;;;1.97;;
15944;SDS011;30172;48.832;8.732;2023-12-20T13:46:36;3.37;;;1.70;;
15944;SDS011;30172;48.832;8.732;2023-12-20T13:49:02;7.57;;;2.13;;
15944;SDS011;30172;48.832;8.732;2023-12-20T13:51:27;8.10;;;2.47;;
15944;SDS011;30172;48.832;8.732;2023-12-20T13:53:53;6.43;;;1.53;;
15944;SDS011;30172;48.832;8.732;2023-12-20T13:56:18;6.90;;;2.07;;
15944;SDS011;30172;48.832;8.732;2023-12-20T13:58:45;6.83;;;2.70;;
15944;SDS011;30172;48.832;8.732;2023-12-20T14:01:11;10.67;;;3.30;;
15944;SDS011;30172;48.832;8.732;2023-12-20T14:03:36;9.23;;;2.07;;
15944;SDS011;30172;48.832;8.732;2023-12-20T14:06:02;9.80;;;2.57;;
15944;SDS011;30172;48.832;8.732;2023-12-20T14:08:28;18.73;;;10.40;;
15944;SDS011;30172;48.832;8.732;2023-12-20T14:10:53;25.57;;;13.50;;
15944;SDS011;30172;48.832;8.732;2023-12-20T14:13:19;6.63;;;3.00;;
15944;SDS011;30172;48.832;8.732;2023-12-20T14:15:46;8.77;;;2.60;;
15944;SDS011;30172;48.832;8.732;2023-12-20T14:18:11;9.23;;;2.70;;
15944;SDS011;30172;48.832;8.732;2023-12-20T14:20:39;8.07;;;2.40;;
15944;SDS011;30172;48.832;8.732;2023-12-20T14:23:07;6.47;;;2.40;;
15944;SDS011;30172;48.832;8.732;2023-12-20T14:25:32;4.93;;;2.17;;
15944;SDS011;30172;48.832;8.732;2023-12-20T14:27:58;6.23;;;2.40;;
15944;SDS011;30172;48.832;8.732;2023-12-20T14:30:24;5.73;;;2.50;;
15944;SDS011;30172;48.832;8.732;2023-12-20T14:32:50;4.70;;;2.30;;
15944;SDS011;30172;48.832;8.732;2023-12-20T14:35:15;5.73;;;2.70;;
15944;SDS011;30172;48.832;8.732;2023-12-20T14:37:41;6.53;;;1.90;;
15944;SDS011;30172;48.832;8.732;2023-12-20T14:40:06;7.30;;;2.40;;
15944;SDS011;30172;48.832;8.732;2023-12-20T14:42:35;4.90;;;2.00;;
15944;SDS011;30172;48.832;8.732;2023-12-20T14:45:01;7.97;;;2.30;;